SVYA4: Illinois River nr Savoy AR

                                SHEF ID:       SVYA4     Illinois River at Savoy, AR
STATION TYPE:

STAGE RIV-FLOW BAT-LOAD
ft cfs volt
Ccp-Rev Ccp-Rev Ccp-Rev
(America/Chicago)
04/25 00:00 4.88 766 12.73
04/25 01:00 4.78 720 12.73
04/25 02:00 4.70 685 12.73
04/25 03:00 4.63 654 12.65
04/25 04:00 4.57 629 12.65
04/25 05:00 4.49 596 12.65
04/25 06:00 4.43 572 12.57
04/25 07:00 4.36 544 12.57
04/25 08:00 4.32 529 12.57
04/25 09:00 4.26 506 12.73
04/25 10:00 4.22 491 12.89
04/25 11:00 4.18 477 13.21
04/25 12:00 4.14 462 13.92
04/25 13:00 4.10 448 14.00
04/25 14:00 4.07 438 13.44
04/25 15:00 4.03 424 13.37
04/25 16:00 4.01 417 13.37
04/25 17:00 3.98 407 13.29
04/25 18:00 3.95 397 12.97
04/25 19:00 3.92 388 12.89
04/25 20:00 3.93 391 12.81
04/25 21:00 3.99 411 12.81
04/25 22:00 4.09 445 12.73
04/25 23:00 4.44 576 12.73
Data processed at Sun 26Apr2026 04:14 GMT

NOTICE: If you are parsing this page

Please convert to using our Data API. Starting early 2026 we will be migrating to: https://water.usace.army.mil with modern pages rendered in JavaScript. When this migration completes you will no longer be able to scrape this page! CWMSDataAPI (CDA)

Timeseries IDs (TSIDs)

TSIDs used from left to right in the data table
SAVO.Stage.Inst.1Hour.0.Ccp-Rev
SAVO.Flow.Inst.1Hour.0.Ccp-Rev
SAVO.Volt-Battery Load.Inst.1Hour.0.Ccp-Rev

                            

All information presented herein is the property of the government of the United States of America and may be revised or deleted at any time without prior notice. Dissemination of this information without the expressed written consent of the Public Affairs Office, Tulsa District U.S. Army Corps of Engineers is strictly prohibited. These data are gathered electronically and, as presented, have NOT undergone any form of quality control. These data are NOT guaranteed to be valid or correct.